createdAt,value
2023-03-13T00:01:27.850Z,94.21
2023-03-13T00:03:55.393Z,94.24
2023-03-13T00:06:28.724Z,94.26
2023-03-13T00:08:55.780Z,94.06
2023-03-13T00:11:22.218Z,92.83
2023-03-13T00:13:48.614Z,92.88
2023-03-13T00:16:16.597Z,92.17
2023-03-13T00:18:48.047Z,91.88
2023-03-13T00:21:18.161Z,91.66
2023-03-13T00:23:45.564Z,92.69
2023-03-13T00:26:15.083Z,92.55
2023-03-13T00:28:42.536Z,92.45
2023-03-13T00:31:19.987Z,92.00
2023-03-13T00:33:53.049Z,92.16
2023-03-13T00:36:21.792Z,92.65
2023-03-13T00:38:48.516Z,92.10
2023-03-13T00:41:18.139Z,89.96
2023-03-13T00:43:46.014Z,90.05
2023-03-13T00:46:13.887Z,88.71
2023-03-13T00:48:40.838Z,88.52
2023-03-13T00:51:09.540Z,88.60
2023-03-13T00:53:36.537Z,88.26
2023-03-13T00:56:06.092Z,88.35
2023-03-13T00:58:36.154Z,88.08
2023-03-13T01:01:16.803Z,88.96
2023-03-13T01:03:46.848Z,89.85
2023-03-13T01:06:16.402Z,89.71
2023-03-13T01:08:43.049Z,90.02
2023-03-13T01:11:15.718Z,90.28
2023-03-13T01:13:42.858Z,90.23
2023-03-13T01:16:13.789Z,90.59
2023-03-13T01:18:44.593Z,90.01
2023-03-13T01:21:12.060Z,90.42
2023-03-13T01:23:38.635Z,90.23
2023-03-13T01:26:07.124Z,91.13
2023-03-13T01:28:34.747Z,90.80
2023-03-13T01:31:03.205Z,92.31
2023-03-13T01:33:29.992Z,91.53
2023-03-13T01:36:04.563Z,92.47
2023-03-13T01:38:31.359Z,94.03
2023-03-13T01:40:57.979Z,95.08
2023-03-13T01:43:27.878Z,95.58
2023-03-13T01:46:17.821Z,95.23
2023-03-13T01:49:27.181Z,96.41
2023-03-13T01:52:10.558Z,96.72
2023-03-13T01:55:12.490Z,96.68
2023-03-13T01:57:44.659Z,97.08
2023-03-13T02:00:16.555Z,98.43
2023-03-13T02:02:50.374Z,98.67
2023-03-13T02:05:20.942Z,98.80
2023-03-13T02:08:33.882Z,99.40
2023-03-13T02:11:15.997Z,99.12
2023-03-13T02:13:43.525Z,99.79
2023-03-13T02:16:10.869Z,99.04
2023-03-13T02:18:38.297Z,98.98
2023-03-13T02:21:16.554Z,99.33
2023-03-13T02:23:55.600Z,99.26
2023-03-13T02:26:22.099Z,99.60
2023-03-13T02:28:48.650Z,99.22
2023-03-13T02:31:17.233Z,99.06
2023-03-13T02:33:44.704Z,99.18
2023-03-13T02:36:16.512Z,99.71
2023-03-13T02:38:51.507Z,99.97
2023-03-13T02:41:19.795Z,99.20
2023-03-13T02:43:46.247Z,99.48
2023-03-13T02:46:18.928Z,100.00
2023-03-13T02:48:51.436Z,98.95
2023-03-13T02:51:22.479Z,99.42
2023-03-13T02:53:51.092Z,99.33
2023-03-13T02:56:21.559Z,100.00
2023-03-13T02:58:50.366Z,100.00
2023-03-13T03:01:20.634Z,100.00
2023-03-13T03:03:47.299Z,100.00
2023-03-13T03:06:13.826Z,100.00
2023-03-13T03:08:41.523Z,100.00
2023-03-13T03:11:10.526Z,100.00
2023-03-13T03:13:37.111Z,100.00
2023-03-13T03:16:09.636Z,100.00
2023-03-13T03:18:38.002Z,100.00
2023-03-13T03:21:06.340Z,100.00
2023-03-13T03:23:37.056Z,100.00
2023-03-13T03:26:05.618Z,100.00
2023-03-13T03:28:32.982Z,100.00
2023-03-13T03:31:07.922Z,100.00
2023-03-13T03:33:36.494Z,100.00
2023-03-13T03:36:08.978Z,100.00
2023-03-13T03:38:36.476Z,100.00
2023-03-13T03:41:03.380Z,100.00
2023-03-13T03:43:31.285Z,100.00
2023-03-13T03:45:58.542Z,100.00
2023-03-13T03:48:25.869Z,100.00
2023-03-13T03:50:52.523Z,100.00
2023-03-13T03:53:19.869Z,100.00
2023-03-13T03:55:46.371Z,100.00
2023-03-13T03:58:13.152Z,100.00
2023-03-13T04:01:02.272Z,100.00
2023-03-13T04:03:30.509Z,100.00
2023-03-13T04:05:57.346Z,100.00
2023-03-13T04:08:24.587Z,100.00
2023-03-13T04:10:51.810Z,100.00
2023-03-13T04:13:21.820Z,100.00
2023-03-13T04:15:48.945Z,100.00
2023-03-13T04:18:16.996Z,100.00
2023-03-13T04:20:44.345Z,100.00
2023-03-13T04:23:11.414Z,100.00
2023-03-13T04:25:38.204Z,100.00
2023-03-13T04:28:08.932Z,100.00
2023-03-13T04:30:40.764Z,100.00
2023-03-13T04:33:26.132Z,100.00
2023-03-13T04:36:04.963Z,100.00
2023-03-13T04:38:57.970Z,100.00
2023-03-13T04:41:55.115Z,100.00
2023-03-13T04:44:35.724Z,100.00
2023-03-13T04:47:22.462Z,100.00
2023-03-13T04:50:15.417Z,100.00
2023-03-13T04:52:50.407Z,100.00
2023-03-13T04:55:30.216Z,100.00
2023-03-13T04:58:05.511Z,100.00
2023-03-13T05:00:53.790Z,100.00
2023-03-13T05:03:49.552Z,100.00
2023-03-13T05:06:25.658Z,100.00
2023-03-13T05:09:04.778Z,100.00
2023-03-13T05:11:50.698Z,100.00
2023-03-13T05:14:37.430Z,100.00
2023-03-13T05:17:22.581Z,100.00
2023-03-13T05:20:11.162Z,100.00
2023-03-13T05:22:47.505Z,100.00
2023-03-13T05:25:30.947Z,100.00
2023-03-13T05:28:09.876Z,100.00
2023-03-13T05:30:48.280Z,100.00
2023-03-13T05:33:31.864Z,100.00
2023-03-13T05:36:26.331Z,100.00
2023-03-13T05:38:55.624Z,100.00
2023-03-13T05:41:34.124Z,100.00
2023-03-13T05:44:15.991Z,100.00
2023-03-13T05:47:02.360Z,100.00
2023-03-13T05:49:42.003Z,100.00
2023-03-13T05:52:18.978Z,100.00
2023-03-13T05:55:09.065Z,100.00
2023-03-13T05:57:55.633Z,100.00
2023-03-13T06:00:32.908Z,100.00
2023-03-13T06:03:25.363Z,100.00
2023-03-13T06:05:59.134Z,100.00
2023-03-13T06:08:47.416Z,100.00
2023-03-13T06:11:14.552Z,100.00
2023-03-13T06:13:41.268Z,100.00
2023-03-13T06:16:30.680Z,100.00
2023-03-13T06:19:11.935Z,100.00
2023-03-13T06:21:39.013Z,100.00
2023-03-13T06:24:05.888Z,100.00
2023-03-13T06:26:32.442Z,100.00
2023-03-13T06:28:59.171Z,100.00
2023-03-13T06:31:25.864Z,100.00
2023-03-13T06:33:55.949Z,100.00
2023-03-13T06:36:24.250Z,100.00
2023-03-13T06:38:51.511Z,100.00
2023-03-13T06:41:18.352Z,100.00
2023-03-13T06:43:44.785Z,100.00
2023-03-13T06:46:17.616Z,100.00
2023-03-13T06:48:44.535Z,100.00
2023-03-13T06:51:13.007Z,100.00
2023-03-13T06:53:39.492Z,100.00
2023-03-13T06:56:06.677Z,100.00
2023-03-13T06:58:33.421Z,100.00
2023-03-13T07:01:06.507Z,100.00
2023-03-13T07:03:33.432Z,100.00
2023-03-13T07:06:00.609Z,100.00
2023-03-13T07:08:27.617Z,100.00
2023-03-13T07:10:58.095Z,100.00
2023-03-13T07:13:24.607Z,100.00
2023-03-13T07:15:51.490Z,100.00
2023-03-13T07:18:17.996Z,100.00
2023-03-13T07:20:44.532Z,100.00
2023-03-13T07:23:11.051Z,100.00
2023-03-13T07:25:37.443Z,100.00
2023-03-13T07:28:03.953Z,100.00
2023-03-13T07:30:30.681Z,100.00
2023-03-13T07:32:58.636Z,100.00
2023-03-13T07:35:25.094Z,100.00
2023-03-13T07:37:52.181Z,100.00
2023-03-13T07:40:18.646Z,100.00
2023-03-13T07:42:45.138Z,100.00
2023-03-13T07:45:12.073Z,100.00
2023-03-13T07:47:38.558Z,100.00
2023-03-13T07:50:05.622Z,100.00
2023-03-13T07:52:32.536Z,100.00
2023-03-13T07:54:59.430Z,100.00
2023-03-13T07:57:25.890Z,100.00
2023-03-13T07:59:52.270Z,100.00
2023-03-13T08:02:18.857Z,100.00
2023-03-13T08:04:45.357Z,100.00
2023-03-13T08:07:12.222Z,100.00
2023-03-13T08:09:38.814Z,100.00
2023-03-13T08:12:06.381Z,100.00
2023-03-13T08:14:32.835Z,100.00
2023-03-13T08:16:59.517Z,100.00
2023-03-13T08:19:26.119Z,100.00
2023-03-13T08:21:52.578Z,100.00
2023-03-13T08:24:19.341Z,100.00
2023-03-13T08:26:45.752Z,100.00
2023-03-13T08:29:14.816Z,100.00
2023-03-13T08:31:49.044Z,100.00
2023-03-13T08:34:17.699Z,100.00
2023-03-13T08:36:44.952Z,100.00
2023-03-13T08:39:16.387Z,100.00
2023-03-13T08:41:43.300Z,100.00
2023-03-13T08:44:15.244Z,100.00
2023-03-13T08:46:43.835Z,100.00
2023-03-13T08:49:12.135Z,100.00
2023-03-13T08:51:39.474Z,100.00
2023-03-13T08:54:06.600Z,100.00
2023-03-13T08:56:34.905Z,100.00
2023-03-13T08:59:04.662Z,100.00
2023-03-13T09:01:33.460Z,100.00
2023-03-13T09:04:03.966Z,100.00
2023-03-13T09:06:32.604Z,100.00
2023-03-13T09:08:59.386Z,100.00
2023-03-13T09:11:26.494Z,100.00
2023-03-13T09:13:55.181Z,100.00
2023-03-13T09:16:29.822Z,100.00
2023-03-13T09:18:57.365Z,99.64
2023-03-13T09:21:34.989Z,99.28
2023-03-13T09:24:02.604Z,99.67
2023-03-13T09:26:29.722Z,100.00
2023-03-13T09:28:56.669Z,99.54
2023-03-13T09:31:24.586Z,99.71
2023-03-13T09:33:51.656Z,99.72
2023-03-13T09:36:22.427Z,99.90
2023-03-13T09:38:54.421Z,100.00
2023-03-13T09:41:42.060Z,100.00
2023-03-13T09:44:22.344Z,100.00
2023-03-13T09:47:00.941Z,100.00
2023-03-13T09:49:42.005Z,100.00
2023-03-13T09:52:26.221Z,100.00
2023-03-13T09:55:20.948Z,99.36
2023-03-13T09:57:54.243Z,99.07
2023-03-13T10:00:25.812Z,99.11
2023-03-13T10:03:12.983Z,99.06
2023-03-13T10:05:49.258Z,99.28
2023-03-13T10:08:22.956Z,99.87
2023-03-13T10:11:00.947Z,100.00
2023-03-13T10:13:44.929Z,100.00
2023-03-13T10:16:19.385Z,100.00
2023-03-13T10:18:55.357Z,100.00
2023-03-13T10:21:24.744Z,100.00
2023-03-13T10:24:25.308Z,100.00
2023-03-13T10:26:51.771Z,100.00
2023-03-13T10:29:23.669Z,99.99
2023-03-13T10:32:12.721Z,99.77
2023-03-13T10:35:00.557Z,99.05
2023-03-13T10:37:30.306Z,97.61
2023-03-13T10:40:15.266Z,96.43
2023-03-13T10:42:45.866Z,94.31
2023-03-13T10:45:18.532Z,93.00
2023-03-13T10:47:45.147Z,91.95
2023-03-13T10:50:20.628Z,92.32
2023-03-13T10:52:48.688Z,90.37
2023-03-13T10:55:20.365Z,88.00
2023-03-13T10:58:02.675Z,88.00
2023-03-13T11:00:35.514Z,88.47
2023-03-13T11:03:06.869Z,87.42
2023-03-13T11:05:37.960Z,87.30
2023-03-13T11:08:16.295Z,86.50
2023-03-13T11:10:53.257Z,85.65
2023-03-13T11:13:38.109Z,85.31
2023-03-13T11:16:23.471Z,84.72
2023-03-13T11:19:07.936Z,84.82
2023-03-13T11:21:44.422Z,83.31
2023-03-13T11:24:24.817Z,83.18
2023-03-13T11:27:07.915Z,81.72
2023-03-13T11:29:57.043Z,80.11
2023-03-13T11:32:31.713Z,80.08
2023-03-13T11:35:07.838Z,79.79
2023-03-13T11:37:38.988Z,77.69
2023-03-13T11:40:31.817Z,77.27
2023-03-13T11:43:35.359Z,76.23
2023-03-13T11:46:29.585Z,76.11
2023-03-13T11:49:20.828Z,75.43
2023-03-13T11:52:12.690Z,72.40
2023-03-13T11:54:58.660Z,71.63
2023-03-13T11:57:30.987Z,71.82
2023-03-13T12:00:06.546Z,71.51
2023-03-13T12:02:48.312Z,71.38
2023-03-13T12:05:18.466Z,72.12
2023-03-13T12:08:09.849Z,71.66
2023-03-13T12:10:58.542Z,70.87
2023-03-13T12:14:01.008Z,71.78
2023-03-13T12:16:47.365Z,72.23
2023-03-13T12:19:21.930Z,71.48
2023-03-13T12:21:54.669Z,70.71
2023-03-13T12:24:32.716Z,69.83
2023-03-13T12:27:05.663Z,68.48
2023-03-13T12:29:53.379Z,68.54
2023-03-13T12:32:29.615Z,67.58
2023-03-13T12:35:18.293Z,68.04
2023-03-13T12:37:50.646Z,68.69
2023-03-13T12:40:22.893Z,67.85
2023-03-13T12:43:05.233Z,66.81
2023-03-13T12:45:33.740Z,64.70
2023-03-13T12:48:23.351Z,63.68
2023-03-13T12:51:28.548Z,62.60
2023-03-13T12:54:04.015Z,63.27
2023-03-13T12:56:40.554Z,62.99
2023-03-13T12:59:19.289Z,63.41
2023-03-13T13:01:50.969Z,63.23
2023-03-13T13:04:24.734Z,63.33
2023-03-13T13:07:06.258Z,63.34
2023-03-13T13:09:39.227Z,64.40
2023-03-13T13:12:14.492Z,64.55
2023-03-13T13:14:50.102Z,64.17
2023-03-13T13:17:42.173Z,63.28
2023-03-13T13:20:30.523Z,64.77
2023-03-13T13:22:57.743Z,63.82
2023-03-13T13:25:24.112Z,64.49
2023-03-13T13:27:50.741Z,64.04
2023-03-13T13:30:17.106Z,65.16
2023-03-13T13:32:49.174Z,64.91
2023-03-13T13:35:20.110Z,65.95
2023-03-13T13:37:49.428Z,65.39
2023-03-13T13:40:16.205Z,63.22
2023-03-13T13:43:05.582Z,62.92
2023-03-13T13:45:39.128Z,62.61
2023-03-13T13:48:27.805Z,62.60
2023-03-13T13:51:14.100Z,60.05
2023-03-13T13:53:50.771Z,59.52
2023-03-13T13:56:32.337Z,60.46
2023-03-13T13:59:20.943Z,60.09
2023-03-13T14:01:49.857Z,58.62
2023-03-13T14:04:24.859Z,57.25
2023-03-13T14:06:52.794Z,57.00
2023-03-13T14:09:40.768Z,55.12
2023-03-13T14:12:38.232Z,56.09
2023-03-13T14:15:19.098Z,56.09
2023-03-13T14:17:54.707Z,54.38
2023-03-13T14:20:27.264Z,53.14
2023-03-13T14:22:56.135Z,53.62
2023-03-13T14:25:24.608Z,53.94
2023-03-13T14:27:52.316Z,54.08
2023-03-13T14:30:20.716Z,54.12
2023-03-13T14:32:48.016Z,55.06
2023-03-13T14:35:19.488Z,55.47
2023-03-13T14:37:48.157Z,54.51
2023-03-13T14:40:27.641Z,55.60
2023-03-13T14:42:57.366Z,56.00
2023-03-13T14:45:33.087Z,55.45
2023-03-13T14:48:03.496Z,55.54
2023-03-13T14:50:30.030Z,55.30
2023-03-13T14:53:05.251Z,55.44
2023-03-13T14:55:35.468Z,56.39
2023-03-13T14:58:05.520Z,56.94
2023-03-13T15:00:41.276Z,57.63
2023-03-13T15:03:16.899Z,57.44
2023-03-13T15:05:45.357Z,57.81
2023-03-13T15:08:24.607Z,58.09
2023-03-13T15:10:51.226Z,56.94
2023-03-13T15:13:43.938Z,57.49
2023-03-13T15:16:21.752Z,56.70
2023-03-13T15:18:51.028Z,57.45
2023-03-13T15:21:22.145Z,57.97
2023-03-13T15:24:10.073Z,58.65
2023-03-13T15:26:36.545Z,57.94
2023-03-13T15:29:03.030Z,59.28
2023-03-13T15:31:30.010Z,59.62
2023-03-13T15:33:59.645Z,59.76
2023-03-13T15:36:28.130Z,59.03
2023-03-13T15:38:54.962Z,57.23
2023-03-13T15:41:22.317Z,57.75
2023-03-13T15:43:56.917Z,57.92
2023-03-13T15:46:25.318Z,58.53
2023-03-13T15:48:52.194Z,58.61
2023-03-13T15:51:18.839Z,58.43
2023-03-13T15:53:46.110Z,58.07
2023-03-13T15:56:18.102Z,58.40
2023-03-13T15:58:45.822Z,58.76
2023-03-13T16:01:13.893Z,59.57
2023-03-13T16:03:41.261Z,60.00
2023-03-13T16:06:17.392Z,59.46
2023-03-13T16:08:45.021Z,59.93
2023-03-13T16:11:16.727Z,60.16
2023-03-13T16:13:43.363Z,60.82
2023-03-13T16:16:19.410Z,60.57
2023-03-13T16:18:47.034Z,61.40
2023-03-13T16:21:19.582Z,61.46
2023-03-13T16:23:46.089Z,61.94
2023-03-13T16:26:16.222Z,62.13
2023-03-13T16:28:42.772Z,61.79
2023-03-13T16:31:17.064Z,61.73
2023-03-13T16:33:43.773Z,62.13
2023-03-13T16:36:15.326Z,62.35
2023-03-13T16:38:41.969Z,62.63
2023-03-13T16:41:10.833Z,62.72
2023-03-13T16:43:37.364Z,62.97
2023-03-13T16:46:06.456Z,62.55
2023-03-13T16:48:33.086Z,62.87
2023-03-13T16:50:59.810Z,63.40
2023-03-13T16:53:26.337Z,63.68
2023-03-13T16:55:54.917Z,64.29
2023-03-13T16:58:21.445Z,63.72
2023-03-13T17:01:02.747Z,64.15
2023-03-13T17:03:31.491Z,64.33
2023-03-13T17:05:57.945Z,64.33
2023-03-13T17:08:24.354Z,64.34
2023-03-13T17:10:50.824Z,64.28
2023-03-13T17:13:20.085Z,64.81
2023-03-13T17:15:46.511Z,65.27
2023-03-13T17:18:12.932Z,64.92
2023-03-13T17:20:39.601Z,66.12
2023-03-13T17:23:05.996Z,66.28
2023-03-13T17:25:33.156Z,66.40
2023-03-13T17:27:59.828Z,67.01
2023-03-13T17:30:30.288Z,67.63
2023-03-13T17:32:59.260Z,68.23
2023-03-13T17:35:25.754Z,67.91
2023-03-13T17:37:52.349Z,68.01
2023-03-13T17:40:28.135Z,68.15
2023-03-13T17:42:56.125Z,68.93
2023-03-13T17:45:22.565Z,68.76
2023-03-13T17:47:51.728Z,69.31
2023-03-13T17:50:26.379Z,68.77
2023-03-13T17:52:53.553Z,68.70
2023-03-13T17:55:20.060Z,69.24
2023-03-13T17:57:48.271Z,69.48
2023-03-13T18:00:24.797Z,69.83
2023-03-13T18:02:51.399Z,70.11
2023-03-13T18:05:18.451Z,69.62
2023-03-13T18:07:45.165Z,70.10
2023-03-13T18:10:26.473Z,69.57
2023-03-13T18:12:53.274Z,70.09
2023-03-13T18:15:21.299Z,69.72
2023-03-13T18:17:48.465Z,70.19
2023-03-13T18:20:21.261Z,69.95
2023-03-13T18:22:47.919Z,70.40
2023-03-13T18:25:14.541Z,70.43
2023-03-13T18:27:41.401Z,71.01
2023-03-13T18:30:17.317Z,70.88
2023-03-13T18:32:43.885Z,70.98
2023-03-13T18:35:12.199Z,71.12
2023-03-13T18:37:41.898Z,70.75
2023-03-13T18:40:17.382Z,70.84
2023-03-13T18:42:43.934Z,71.50
2023-03-13T18:45:15.349Z,71.02
2023-03-13T18:47:41.897Z,70.77
2023-03-13T18:50:18.708Z,71.07
2023-03-13T18:52:45.159Z,72.27
2023-03-13T18:55:11.527Z,73.18
2023-03-13T18:57:38.016Z,73.84
2023-03-13T19:00:24.438Z,73.84
2023-03-13T19:02:51.173Z,74.57
2023-03-13T19:05:18.639Z,74.57
2023-03-13T19:07:45.528Z,75.05
2023-03-13T19:10:24.673Z,75.90
2023-03-13T19:12:52.291Z,76.49
2023-03-13T19:15:19.306Z,77.18
2023-03-13T19:17:45.791Z,77.25
2023-03-13T19:20:18.111Z,77.02
2023-03-13T19:22:44.628Z,76.15
2023-03-13T19:25:12.370Z,76.41
2023-03-13T19:27:40.675Z,76.24
2023-03-13T19:30:18.173Z,76.75
2023-03-13T19:32:45.067Z,76.94
2023-03-13T19:35:12.654Z,77.51
2023-03-13T19:37:40.342Z,77.08
2023-03-13T19:40:15.895Z,77.13
2023-03-13T19:42:42.367Z,76.22
2023-03-13T19:45:12.168Z,75.76
2023-03-13T19:47:39.348Z,74.82
2023-03-13T19:50:06.601Z,74.91
2023-03-13T19:52:33.109Z,73.18
2023-03-13T19:55:05.115Z,71.91
2023-03-13T19:57:32.383Z,71.97
2023-03-13T19:59:58.961Z,71.96
2023-03-13T20:02:26.655Z,72.13
2023-03-13T20:04:53.077Z,72.01
2023-03-13T20:07:19.507Z,73.17
2023-03-13T20:09:45.943Z,72.85
2023-03-13T20:12:12.402Z,73.51
2023-03-13T20:14:38.923Z,73.13
2023-03-13T20:17:05.612Z,73.68
2023-03-13T20:19:32.337Z,73.84
2023-03-13T20:22:05.092Z,74.01
2023-03-13T20:24:33.515Z,74.15
2023-03-13T20:27:00.677Z,74.17
2023-03-13T20:29:28.140Z,73.98
2023-03-13T20:31:55.842Z,73.86
2023-03-13T20:34:22.352Z,74.41
2023-03-13T20:36:48.866Z,74.15
2023-03-13T20:39:15.283Z,74.11
2023-03-13T20:41:41.705Z,74.98
2023-03-13T20:44:08.108Z,75.95
2023-03-13T20:46:35.139Z,76.98
2023-03-13T20:49:01.966Z,77.36
2023-03-13T20:51:29.000Z,78.14
2023-03-13T20:53:55.587Z,78.34
2023-03-13T20:56:22.253Z,78.96
2023-03-13T20:58:48.722Z,79.99
2023-03-13T21:01:17.639Z,80.69
2023-03-13T21:03:44.850Z,81.01
2023-03-13T21:06:13.944Z,81.08
2023-03-13T21:08:41.081Z,82.42
2023-03-13T21:11:15.991Z,82.54
2023-03-13T21:13:42.539Z,82.79
2023-03-13T21:16:09.890Z,83.60
2023-03-13T21:18:36.785Z,83.99
2023-03-13T21:21:12.271Z,84.85
2023-03-13T21:23:38.807Z,85.50
2023-03-13T21:26:05.627Z,84.76
2023-03-13T21:28:32.688Z,84.95
2023-03-13T21:30:59.415Z,85.50
2023-03-13T21:33:25.944Z,86.00
2023-03-13T21:35:52.445Z,86.45
2023-03-13T21:38:18.948Z,85.73
2023-03-13T21:40:45.372Z,85.32
2023-03-13T21:43:11.794Z,85.38
2023-03-13T21:45:38.228Z,84.87
2023-03-13T21:48:04.659Z,85.16
2023-03-13T21:50:32.599Z,85.33
2023-03-13T21:52:59.221Z,85.65
2023-03-13T21:55:25.665Z,85.39
2023-03-13T21:57:52.108Z,85.33
2023-03-13T22:00:18.790Z,85.04
2023-03-13T22:02:45.282Z,84.28
2023-03-13T22:05:11.836Z,84.22
2023-03-13T22:07:38.265Z,84.06
2023-03-13T22:10:05.228Z,84.58
2023-03-13T22:12:31.763Z,84.43
2023-03-13T22:14:58.186Z,84.54
2023-03-13T22:17:24.591Z,83.85
2023-03-13T22:19:51.105Z,84.17
2023-03-13T22:22:19.752Z,84.39
2023-03-13T22:24:46.393Z,85.09
2023-03-13T22:27:12.938Z,85.06
2023-03-13T22:29:39.480Z,85.16
2023-03-13T22:32:05.944Z,84.55
2023-03-13T22:34:32.994Z,84.48
2023-03-13T22:36:59.625Z,84.02
2023-03-13T22:39:26.101Z,83.50
2023-03-13T22:41:52.497Z,83.43
2023-03-13T22:44:18.973Z,83.09
2023-03-13T22:46:45.558Z,84.08
2023-03-13T22:49:11.980Z,83.38
2023-03-13T22:51:38.440Z,83.38
2023-03-13T22:54:04.921Z,83.39
2023-03-13T22:56:31.583Z,83.25
2023-03-13T22:58:58.086Z,82.77
2023-03-13T23:01:24.583Z,82.33
2023-03-13T23:03:51.358Z,82.56
2023-03-13T23:06:21.076Z,82.56
2023-03-13T23:08:47.604Z,81.96
2023-03-13T23:11:14.974Z,81.92
2023-03-13T23:13:41.451Z,81.48
2023-03-13T23:16:10.123Z,81.50
2023-03-13T23:18:38.377Z,80.90
2023-03-13T23:21:07.586Z,81.04
2023-03-13T23:23:34.679Z,80.53
2023-03-13T23:26:03.104Z,80.91
2023-03-13T23:28:29.612Z,80.53
2023-03-13T23:30:56.058Z,80.91
2023-03-13T23:33:22.777Z,80.14
2023-03-13T23:35:49.239Z,79.87
2023-03-13T23:38:18.331Z,79.36
2023-03-13T23:40:44.822Z,79.09
2023-03-13T23:43:11.500Z,78.88
2023-03-13T23:45:38.491Z,79.36
2023-03-13T23:48:05.586Z,78.80
2023-03-13T23:50:32.129Z,78.23
2023-03-13T23:52:58.552Z,78.29
2023-03-13T23:55:24.978Z,78.15
2023-03-13T23:57:51.358Z,79.33
